Dean Funes, Argentina
Current Conditions -  °F | °C
As of 1:00 AM on Sunday 23 Nov 2014 (Local Time) from SACO Reporting Station
Clear Clear  
Wind Chill: 61°   Ceiling: Unl
Heat Index: 61°   Visibility: 6mi
Dew Point: 52°   Wind: 7mph
Humidity: 72%   Direction: 360°N
Pressure: 29.97"   Gusts: NA
Location:  30.43°S, 64.35°W
Report Text: SACO 230400Z 36006KT CAVOK 16/11 Q1015
Loading
Personal Weather Stations






























Interactive Weather Map New forecast layout! Learn more

10-Day Weather Forecast

Advertisements
Track Severe Weather on mobile